createdAt,value
2018-09-25T00:00:09.155Z,6.75
2018-09-25T00:02:41.892Z,4.65
2018-09-25T00:05:14.587Z,4.55
2018-09-25T00:07:47.225Z,8.75
2018-09-25T00:10:20.002Z,5.50
2018-09-25T00:12:52.651Z,4.60
2018-09-25T00:15:25.334Z,6.97
2018-09-25T00:17:58.036Z,4.50
2018-09-25T00:20:30.876Z,7.65
2018-09-25T00:23:03.638Z,4.42
2018-09-25T00:25:36.219Z,5.20
2018-09-25T00:28:08.967Z,7.58
2018-09-25T00:30:41.526Z,5.12
2018-09-25T00:33:14.211Z,5.10
2018-09-25T00:35:46.851Z,8.00
2018-09-25T00:38:19.618Z,5.95
2018-09-25T00:40:52.355Z,5.08
2018-09-25T00:43:25.096Z,6.05
2018-09-25T00:45:57.824Z,4.40
2018-09-25T00:48:30.470Z,4.92
2018-09-25T00:51:03.160Z,5.55
2018-09-25T00:53:35.863Z,5.55
2018-09-25T00:56:08.585Z,7.67
2018-09-25T00:58:41.309Z,7.47
2018-09-25T01:01:14.067Z,5.37
2018-09-25T01:03:46.692Z,11.43
2018-09-25T01:06:19.447Z,4.60
2018-09-25T01:08:52.054Z,5.08
2018-09-25T01:11:24.754Z,6.78
2018-09-25T01:13:57.483Z,7.53
2018-09-25T01:16:30.191Z,5.20
2018-09-25T01:19:02.844Z,8.03
2018-09-25T01:21:35.547Z,5.25
2018-09-25T01:24:08.146Z,5.47
2018-09-25T01:26:40.905Z,5.92
2018-09-25T01:29:13.657Z,5.10
2018-09-25T01:31:46.415Z,5.03
2018-09-25T01:34:19.143Z,5.45
2018-09-25T01:36:51.847Z,5.90
2018-09-25T01:39:24.575Z,8.80
2018-09-25T01:41:57.336Z,7.53
2018-09-25T01:44:30.016Z,9.98
2018-09-25T01:47:02.659Z,7.72
2018-09-25T01:49:35.274Z,6.45
2018-09-25T01:52:07.890Z,7.65
2018-09-25T01:54:40.565Z,6.90
2018-09-25T01:57:13.290Z,9.30
2018-09-25T01:59:45.934Z,6.47
2018-09-25T02:02:18.750Z,8.08
2018-09-25T02:04:51.453Z,6.83
2018-09-25T02:07:24.237Z,6.70
2018-09-25T02:09:56.846Z,6.00
2018-09-25T02:12:29.696Z,5.62
2018-09-25T02:15:02.358Z,6.33
2018-09-25T02:17:35.025Z,6.53
2018-09-25T02:20:07.700Z,5.58
2018-09-25T02:22:40.383Z,6.47
2018-09-25T02:25:13.084Z,9.73
2018-09-25T02:27:45.591Z,7.55
2018-09-25T02:30:18.247Z,6.40
2018-09-25T02:32:50.942Z,7.05
2018-09-25T02:35:23.755Z,7.53
2018-09-25T02:37:56.595Z,5.58
2018-09-25T02:40:29.222Z,6.10
2018-09-25T02:43:01.982Z,5.55
2018-09-25T02:45:34.735Z,6.28
2018-09-25T02:48:07.475Z,5.85
2018-09-25T02:50:40.124Z,6.30
2018-09-25T02:53:12.772Z,7.78
2018-09-25T02:55:45.505Z,5.50
2018-09-25T02:58:18.215Z,5.62
2018-09-25T03:00:51.017Z,5.60
2018-09-25T03:03:23.653Z,5.70
2018-09-25T03:05:56.294Z,6.10
2018-09-25T03:08:29.055Z,5.47
2018-09-25T03:11:01.711Z,5.80
2018-09-25T03:13:34.338Z,5.80
2018-09-25T03:16:07.056Z,6.25
2018-09-25T03:18:39.822Z,6.55
2018-09-25T03:21:12.555Z,10.70
2018-09-25T03:23:45.259Z,5.83
2018-09-25T03:26:17.901Z,11.08
2018-09-25T03:28:50.644Z,5.62
2018-09-25T03:31:23.247Z,6.40
2018-09-25T03:33:56.063Z,5.72
2018-09-25T03:36:28.795Z,6.55
2018-09-25T03:39:01.459Z,6.20
2018-09-25T03:41:41.103Z,5.75
2018-09-25T03:44:13.774Z,6.40
2018-09-25T03:46:46.515Z,6.15
2018-09-25T03:49:19.142Z,5.72
2018-09-25T03:51:51.881Z,6.60
2018-09-25T03:54:24.651Z,6.85
2018-09-25T03:56:57.275Z,6.83
2018-09-25T03:59:29.896Z,5.60
2018-09-25T04:02:02.638Z,6.47
2018-09-25T04:04:35.294Z,7.37
2018-09-25T04:07:07.995Z,6.28
2018-09-25T04:09:40.675Z,7.55
2018-09-25T04:12:13.375Z,5.67
2018-09-25T04:14:46.111Z,6.65
2018-09-25T04:17:18.830Z,6.80
2018-09-25T04:19:51.592Z,6.58
2018-09-25T04:22:24.337Z,6.35
2018-09-25T04:24:57.042Z,6.20
2018-09-25T04:27:29.799Z,6.28
2018-09-25T04:30:02.261Z,7.78
2018-09-25T04:32:34.791Z,5.17
2018-09-25T04:35:07.530Z,5.55
2018-09-25T04:37:40.299Z,5.17
2018-09-25T04:40:12.911Z,7.80
2018-09-25T04:42:45.673Z,6.30
2018-09-25T04:45:18.458Z,5.97
2018-09-25T04:47:51.321Z,10.80
2018-09-25T04:50:24.018Z,5.95
2018-09-25T04:52:56.667Z,6.25
2018-09-25T04:55:29.327Z,10.82
2018-09-25T04:58:02.159Z,6.75
2018-09-25T05:00:34.882Z,13.62
2018-09-25T05:03:07.588Z,12.20
2018-09-25T05:05:40.231Z,10.85
2018-09-25T05:08:12.939Z,11.05
2018-09-25T05:10:45.760Z,10.82
2018-09-25T05:13:18.544Z,10.23
2018-09-25T05:15:51.284Z,9.23
2018-09-25T05:18:23.965Z,14.13
2018-09-25T05:20:56.788Z,11.10
2018-09-25T05:23:29.681Z,9.03
2018-09-25T05:26:02.291Z,10.65
2018-09-25T05:28:34.973Z,9.60
2018-09-25T05:31:07.765Z,12.18
2018-09-25T05:33:40.539Z,9.75
2018-09-25T05:36:13.272Z,8.98
2018-09-25T05:38:45.998Z,8.08
2018-09-25T05:41:18.695Z,7.95
2018-09-25T05:43:51.412Z,7.83
2018-09-25T05:46:24.003Z,11.85
2018-09-25T05:48:56.756Z,13.20
2018-09-25T05:51:29.316Z,7.45
2018-09-25T05:54:02.028Z,8.73
2018-09-25T05:56:34.752Z,10.98
2018-09-25T05:59:07.526Z,9.50
2018-09-25T06:01:40.051Z,9.83
2018-09-25T06:04:12.670Z,8.28
2018-09-25T06:06:45.364Z,7.95
2018-09-25T06:09:18.103Z,13.10
2018-09-25T06:11:50.843Z,8.60
2018-09-25T06:14:23.630Z,10.72
2018-09-25T06:16:56.320Z,7.67
2018-09-25T06:19:29.129Z,14.78
2018-09-25T06:22:01.913Z,9.55
2018-09-25T06:24:34.593Z,8.18
2018-09-25T06:27:07.286Z,8.63
2018-09-25T06:29:40.023Z,12.35
2018-09-25T06:32:12.783Z,13.98
2018-09-25T06:34:45.480Z,9.13
2018-09-25T06:37:18.215Z,10.15
2018-09-25T06:39:50.947Z,11.22
2018-09-25T06:42:23.634Z,9.33
2018-09-25T06:44:56.229Z,6.67
2018-09-25T06:47:28.854Z,6.33
2018-09-25T06:50:01.551Z,11.45
2018-09-25T06:52:34.323Z,6.42
2018-09-25T06:55:07.019Z,6.55
2018-09-25T06:57:39.836Z,6.35
2018-09-25T07:00:12.619Z,9.95
2018-09-25T07:02:45.363Z,6.78
2018-09-25T07:05:18.186Z,14.45
2018-09-25T07:07:50.965Z,6.35
2018-09-25T07:10:23.802Z,7.70
2018-09-25T07:12:56.479Z,7.60
2018-09-25T07:15:29.069Z,7.90
2018-09-25T07:18:01.850Z,6.87
2018-09-25T07:20:34.404Z,10.75
2018-09-25T07:23:07.198Z,8.95
2018-09-25T07:25:39.821Z,12.37
2018-09-25T07:28:12.605Z,12.60
2018-09-25T07:30:45.282Z,13.85
2018-09-25T07:33:18.020Z,9.88
2018-09-25T07:35:50.795Z,21.15
2018-09-25T07:38:23.499Z,11.50
2018-09-25T07:40:56.251Z,15.83
2018-09-25T07:43:28.937Z,18.37
2018-09-25T07:46:01.602Z,18.82
2018-09-25T07:48:34.311Z,15.10
2018-09-25T07:51:06.969Z,13.43
2018-09-25T07:53:39.771Z,17.62
2018-09-25T07:56:12.590Z,13.35
2018-09-25T07:58:45.269Z,9.88
2018-09-25T08:01:18.105Z,15.55
2018-09-25T08:03:50.843Z,7.87
2018-09-25T08:06:23.490Z,9.23
2018-09-25T08:08:56.340Z,8.40
2018-09-25T08:11:28.956Z,8.43
2018-09-25T08:14:01.608Z,15.15
2018-09-25T08:16:34.360Z,13.20
2018-09-25T08:19:07.100Z,11.55
2018-09-25T08:21:39.850Z,8.23
2018-09-25T08:24:12.622Z,9.53
2018-09-25T08:26:45.383Z,11.03
2018-09-25T08:29:17.970Z,7.35
2018-09-25T08:31:50.679Z,8.48
2018-09-25T08:34:23.356Z,7.95
2018-09-25T08:36:56.131Z,8.10
2018-09-25T08:39:29.024Z,14.68
2018-09-25T08:42:01.638Z,9.68
2018-09-25T08:44:34.367Z,4.40
2018-09-25T08:47:07.119Z,15.60
2018-09-25T08:49:39.926Z,5.25
2018-09-25T08:52:12.727Z,11.35
2018-09-25T08:54:45.370Z,8.28
2018-09-25T08:57:18.076Z,10.00
2018-09-25T08:59:50.859Z,4.17
2018-09-25T09:02:23.560Z,3.47
2018-09-25T09:04:56.266Z,7.20
2018-09-25T09:07:28.938Z,6.58
2018-09-25T09:10:01.694Z,10.80
2018-09-25T09:12:34.465Z,8.00
2018-09-25T09:15:07.291Z,10.30
2018-09-25T09:17:40.041Z,5.35
2018-09-25T09:20:12.903Z,3.80
2018-09-25T09:22:45.500Z,5.70
2018-09-25T09:25:18.334Z,8.38
2018-09-25T09:27:51.099Z,11.38
2018-09-25T09:30:23.797Z,6.15
2018-09-25T09:32:56.563Z,5.85
2018-09-25T09:35:29.316Z,7.00
2018-09-25T09:38:02.089Z,6.15
2018-09-25T09:40:34.830Z,12.35
2018-09-25T09:43:07.640Z,11.30
2018-09-25T09:45:40.446Z,13.72
2018-09-25T09:48:13.202Z,3.47
2018-09-25T09:50:45.871Z,5.28
2018-09-25T09:53:18.712Z,5.78
2018-09-25T09:55:51.359Z,8.23
2018-09-25T09:58:24.119Z,6.33
2018-09-25T10:00:56.804Z,8.28
2018-09-25T10:03:29.528Z,7.17
2018-09-25T10:06:02.219Z,3.92
2018-09-25T10:08:35.023Z,2.40
2018-09-25T10:11:07.727Z,5.05
2018-09-25T10:13:40.502Z,9.03
2018-09-25T10:16:13.340Z,3.20
2018-09-25T10:18:45.967Z,6.08
2018-09-25T10:21:18.620Z,3.90
2018-09-25T10:23:51.318Z,8.35
2018-09-25T10:26:24.131Z,2.75
2018-09-25T10:28:56.877Z,7.85
2018-09-25T10:31:29.691Z,3.10
2018-09-25T10:34:02.411Z,6.67
2018-09-25T10:36:35.119Z,2.98
2018-09-25T10:39:07.841Z,5.53
2018-09-25T10:41:40.542Z,7.20
2018-09-25T10:44:13.160Z,3.72
2018-09-25T10:46:45.869Z,4.70
2018-09-25T10:49:18.686Z,2.00
2018-09-25T10:51:51.422Z,8.40
2018-09-25T10:54:24.098Z,3.80
2018-09-25T10:56:56.879Z,4.17
2018-09-25T10:59:29.672Z,4.35
2018-09-25T11:02:02.355Z,2.35
2018-09-25T11:04:35.069Z,2.22
2018-09-25T11:07:07.856Z,2.05
2018-09-25T11:09:40.576Z,6.37
2018-09-25T11:12:13.120Z,2.75
2018-09-25T11:14:45.886Z,3.35
2018-09-25T11:17:18.503Z,2.05
2018-09-25T11:19:51.351Z,3.10
2018-09-25T11:22:23.982Z,2.67
2018-09-25T11:24:56.658Z,3.58
2018-09-25T11:27:29.252Z,6.55
2018-09-25T11:30:01.967Z,4.78
2018-09-25T11:32:34.527Z,7.80
2018-09-25T11:35:07.271Z,3.42
2018-09-25T11:37:40.111Z,4.72
2018-09-25T11:40:12.939Z,3.72
2018-09-25T11:42:45.774Z,3.62
2018-09-25T11:45:18.607Z,4.33
2018-09-25T11:47:51.380Z,2.40
2018-09-25T11:50:24.078Z,2.95
2018-09-25T11:52:56.771Z,2.37
2018-09-25T11:55:29.429Z,3.20
2018-09-25T11:58:02.147Z,3.70
2018-09-25T12:00:34.838Z,4.22
2018-09-25T12:03:07.448Z,2.85
2018-09-25T12:05:40.246Z,3.30
2018-09-25T12:08:13.081Z,2.70
2018-09-25T12:10:45.791Z,2.15
2018-09-25T12:13:18.486Z,3.00
2018-09-25T12:15:51.095Z,3.27
2018-09-25T12:18:23.646Z,4.83
2018-09-25T12:20:56.265Z,4.85
2018-09-25T12:23:29.141Z,5.47
2018-09-25T12:26:01.793Z,6.08
2018-09-25T12:28:34.562Z,3.65
2018-09-25T12:31:07.231Z,7.70
2018-09-25T12:33:39.882Z,5.72
2018-09-25T12:36:12.571Z,3.15
2018-09-25T12:38:45.238Z,3.22
2018-09-25T12:41:17.855Z,5.15
2018-09-25T12:43:50.618Z,7.72
2018-09-25T12:46:23.477Z,2.80
2018-09-25T12:48:56.170Z,1.10
2018-09-25T12:51:28.831Z,4.67
2018-09-25T12:54:01.539Z,3.80
2018-09-25T12:56:34.219Z,3.00
2018-09-25T12:59:06.866Z,3.33
2018-09-25T13:01:39.699Z,2.58
2018-09-25T13:04:12.495Z,2.92
2018-09-25T13:06:45.288Z,1.87
2018-09-25T13:09:18.031Z,3.55
2018-09-25T13:11:50.791Z,1.70
2018-09-25T13:14:23.564Z,2.65
2018-09-25T13:16:56.245Z,5.33
2018-09-25T13:19:28.923Z,5.45
2018-09-25T13:22:01.673Z,3.75
2018-09-25T13:24:34.347Z,2.42
2018-09-25T13:27:07.024Z,4.45
2018-09-25T13:29:39.676Z,4.03
2018-09-25T13:32:12.698Z,2.47
2018-09-25T13:34:45.411Z,3.58
2018-09-25T13:37:18.162Z,7.37
2018-09-25T13:39:50.871Z,1.90
2018-09-25T13:42:23.654Z,2.08
2018-09-25T13:44:56.335Z,2.70
2018-09-25T13:47:29.082Z,2.55
2018-09-25T13:50:01.836Z,3.08
2018-09-25T13:52:34.673Z,5.80
2018-09-25T13:55:07.251Z,4.62
2018-09-25T13:57:39.835Z,2.55
2018-09-25T14:00:12.469Z,2.98
2018-09-25T14:02:45.050Z,8.75
2018-09-25T14:05:17.736Z,1.80
2018-09-25T14:07:50.379Z,5.20
2018-09-25T14:10:23.100Z,10.18
2018-09-25T14:12:55.781Z,3.40
2018-09-25T14:15:28.588Z,7.15
2018-09-25T14:18:01.299Z,3.55
2018-09-25T14:20:33.979Z,4.75
2018-09-25T14:23:06.660Z,2.55
2018-09-25T14:25:39.294Z,8.63
2018-09-25T14:28:11.994Z,2.52
2018-09-25T14:30:44.745Z,2.20
2018-09-25T14:33:17.439Z,5.62
2018-09-25T14:35:50.166Z,2.15
2018-09-25T14:38:22.856Z,5.05
2018-09-25T14:40:55.640Z,4.15
2018-09-25T14:43:28.410Z,4.00
2018-09-25T14:46:01.084Z,2.55
2018-09-25T14:48:33.825Z,5.78
2018-09-25T14:51:06.545Z,3.55
2018-09-25T14:53:39.242Z,3.05
2018-09-25T14:56:11.758Z,3.62
2018-09-25T14:58:44.315Z,5.33
2018-09-25T15:01:16.989Z,3.77
2018-09-25T15:03:49.751Z,1.82
2018-09-25T15:06:22.454Z,3.08
2018-09-25T15:08:55.150Z,3.83
2018-09-25T15:11:27.890Z,4.57
2018-09-25T15:14:00.569Z,2.87
2018-09-25T15:16:33.307Z,3.80
2018-09-25T15:19:05.968Z,6.67
2018-09-25T15:21:38.878Z,4.77
2018-09-25T15:24:11.415Z,2.92
2018-09-25T15:26:44.141Z,4.80
2018-09-25T15:29:16.800Z,3.05
2018-09-25T15:31:49.476Z,4.83
2018-09-25T15:34:22.220Z,7.15
2018-09-25T15:36:54.963Z,2.55
2018-09-25T15:39:27.583Z,2.37
2018-09-25T15:42:00.330Z,3.83
2018-09-25T15:44:33.087Z,3.20
2018-09-25T15:47:05.856Z,5.17
2018-09-25T15:49:38.446Z,6.37
2018-09-25T15:52:11.228Z,2.93
2018-09-25T15:54:44.075Z,5.08
2018-09-25T15:57:16.661Z,2.60
2018-09-25T15:59:49.390Z,2.77
2018-09-25T16:02:22.093Z,3.27
2018-09-25T16:04:54.799Z,6.80
2018-09-25T16:07:27.756Z,3.08
2018-09-25T16:10:00.498Z,2.22
2018-09-25T16:12:33.237Z,3.10
2018-09-25T16:15:05.958Z,3.08
2018-09-25T16:17:38.653Z,5.60
2018-09-25T16:20:11.418Z,2.40
2018-09-25T16:22:44.181Z,2.33
2018-09-25T16:25:16.981Z,2.35
2018-09-25T16:27:49.764Z,5.15
2018-09-25T16:30:22.516Z,3.95
2018-09-25T16:32:55.233Z,3.08
2018-09-25T16:35:28.020Z,2.72
2018-09-25T16:38:00.703Z,8.38
2018-09-25T16:40:33.423Z,2.95
2018-09-25T16:43:06.007Z,8.75
2018-09-25T16:45:38.709Z,5.00
2018-09-25T16:48:11.446Z,6.40
2018-09-25T16:50:44.162Z,4.25
2018-09-25T16:53:16.781Z,8.98
2018-09-25T16:55:49.515Z,2.05
2018-09-25T16:58:22.260Z,3.87
2018-09-25T17:00:55.059Z,8.48
2018-09-25T17:03:27.680Z,9.23
2018-09-25T17:06:00.364Z,18.42
2018-09-25T17:08:32.968Z,12.15
2018-09-25T17:11:05.654Z,6.85
2018-09-25T17:13:38.483Z,7.75
2018-09-25T17:16:11.111Z,8.68
2018-09-25T17:18:43.834Z,5.65
2018-09-25T17:21:16.621Z,8.00
2018-09-25T17:23:49.394Z,30.00
2018-09-25T17:26:22.110Z,40.00
2018-09-25T17:28:54.822Z,29.23
2018-09-25T17:31:27.535Z,80.50
2018-09-25T17:34:00.309Z,61.20
2018-09-25T17:36:32.963Z,44.30
2018-09-25T17:39:05.604Z,36.17
2018-09-25T17:41:38.598Z,35.90
2018-09-25T17:44:11.198Z,19.10
2018-09-25T17:46:43.770Z,13.28
2018-09-25T17:49:16.569Z,7.37
2018-09-25T17:51:49.360Z,4.55
2018-09-25T17:54:22.147Z,6.20
2018-09-25T17:56:54.952Z,9.45
2018-09-25T17:59:27.736Z,5.72
2018-09-25T18:02:00.431Z,4.72
2018-09-25T18:04:33.092Z,4.62
2018-09-25T18:07:05.700Z,6.50
2018-09-25T18:09:38.449Z,6.20
2018-09-25T18:12:11.061Z,10.53
2018-09-25T18:14:43.941Z,5.50
2018-09-25T18:17:16.575Z,5.00
2018-09-25T18:19:49.289Z,19.48
2018-09-25T18:22:21.982Z,18.40
2018-09-25T18:24:54.620Z,13.38
2018-09-25T18:27:27.247Z,8.80
2018-09-25T18:30:00.018Z,9.48
2018-09-25T18:32:32.616Z,6.03
2018-09-25T18:35:05.346Z,7.08
2018-09-25T18:37:37.998Z,6.97
2018-09-25T18:40:10.746Z,9.55
2018-09-25T18:42:43.355Z,8.73
2018-09-25T18:45:16.197Z,9.55
2018-09-25T18:47:48.943Z,7.90
2018-09-25T18:50:21.706Z,5.58
2018-09-25T18:52:54.367Z,5.70
2018-09-25T18:55:27.071Z,5.47
2018-09-25T18:57:59.822Z,5.00
2018-09-25T19:00:32.530Z,5.30
2018-09-25T19:03:05.298Z,5.33
2018-09-25T19:05:38.082Z,18.12
2018-09-25T19:08:10.819Z,7.33
2018-09-25T19:10:43.682Z,7.72
2018-09-25T19:13:16.433Z,9.35
2018-09-25T19:15:49.272Z,6.47
2018-09-25T19:18:22.011Z,10.65
2018-09-25T19:20:54.763Z,10.10
2018-09-25T19:23:27.458Z,6.85
2018-09-25T19:26:00.067Z,6.95
2018-09-25T19:28:32.826Z,10.30
2018-09-25T19:31:05.526Z,6.70
2018-09-25T19:33:38.146Z,7.65
2018-09-25T19:36:10.839Z,6.47
2018-09-25T19:38:43.445Z,9.10
2018-09-25T19:41:16.271Z,10.82
2018-09-25T19:43:48.904Z,6.45
2018-09-25T19:46:21.651Z,8.20
2018-09-25T19:48:54.394Z,6.87
2018-09-25T19:51:26.981Z,16.80
2018-09-25T19:53:59.713Z,8.70
2018-09-25T19:56:32.451Z,9.43
2018-09-25T19:59:05.093Z,7.78
2018-09-25T20:01:37.731Z,6.78
2018-09-25T20:04:10.489Z,7.12
2018-09-25T20:06:43.100Z,6.65
2018-09-25T20:09:15.803Z,5.40
2018-09-25T20:11:48.460Z,7.67
2018-09-25T20:14:21.107Z,5.97
2018-09-25T20:16:53.840Z,6.53
2018-09-25T20:19:26.533Z,6.37
2018-09-25T20:21:59.285Z,9.15
2018-09-25T20:24:31.876Z,10.90
2018-09-25T20:27:04.603Z,6.42
2018-09-25T20:29:37.336Z,7.10
2018-09-25T20:32:10.158Z,10.50
2018-09-25T20:34:42.879Z,8.65
2018-09-25T20:37:15.744Z,13.05
2018-09-25T20:39:48.358Z,30.77
2018-09-25T20:42:21.037Z,19.67
2018-09-25T20:44:53.770Z,8.78
2018-09-25T20:47:26.492Z,8.45
2018-09-25T20:49:59.287Z,6.10
2018-09-25T20:52:32.056Z,7.85
2018-09-25T20:55:04.812Z,10.55
2018-09-25T20:57:37.542Z,7.10
2018-09-25T21:00:10.336Z,6.55
2018-09-25T21:02:43.088Z,7.42
2018-09-25T21:05:15.800Z,6.95
2018-09-25T21:07:48.528Z,7.15
2018-09-25T21:10:21.350Z,7.67
2018-09-25T21:12:53.998Z,7.55
2018-09-25T21:15:26.659Z,7.40
2018-09-25T21:17:59.404Z,7.45
2018-09-25T21:20:32.045Z,7.60
2018-09-25T21:23:04.814Z,8.18
2018-09-25T21:25:37.419Z,10.75
2018-09-25T21:28:10.140Z,9.85
2018-09-25T21:30:42.811Z,12.60
2018-09-25T21:33:15.628Z,36.53
2018-09-25T21:35:48.346Z,38.92
2018-09-25T21:38:21.094Z,23.10
2018-09-25T21:40:53.894Z,96.50
2018-09-25T21:43:26.556Z,27.40
2018-09-25T21:45:59.249Z,24.57
2018-09-25T21:48:31.971Z,18.12
2018-09-25T21:51:04.742Z,28.38
2018-09-25T21:53:37.325Z,22.50
2018-09-25T21:56:10.091Z,18.20
2018-09-25T21:58:42.866Z,16.27
2018-09-25T22:01:15.648Z,15.00
2018-09-25T22:03:48.441Z,16.42
2018-09-25T22:06:21.093Z,15.93
2018-09-25T22:08:53.803Z,15.23
2018-09-25T22:11:26.584Z,11.83
2018-09-25T22:13:59.319Z,16.05
2018-09-25T22:16:31.948Z,10.03
2018-09-25T22:19:04.716Z,7.33
2018-09-25T22:21:37.384Z,12.10
2018-09-25T22:24:10.182Z,8.98
2018-09-25T22:26:42.784Z,8.58
2018-09-25T22:29:15.448Z,8.63
2018-09-25T22:31:48.191Z,8.33
2018-09-25T22:34:20.934Z,11.35
2018-09-25T22:36:53.595Z,7.62
2018-09-25T22:39:26.236Z,11.40
2018-09-25T22:41:58.954Z,8.93
2018-09-25T22:44:31.749Z,8.95
2018-09-25T22:47:04.503Z,8.28
2018-09-25T22:49:37.422Z,9.23
2018-09-25T22:52:10.159Z,11.28
2018-09-25T22:54:42.814Z,11.43
2018-09-25T22:57:15.552Z,9.40
2018-09-25T22:59:48.290Z,11.45
2018-09-25T23:02:21.025Z,10.15
2018-09-25T23:04:53.770Z,10.40
2018-09-25T23:07:26.522Z,9.00
2018-09-25T23:09:59.223Z,9.63
2018-09-25T23:12:31.879Z,9.98
2018-09-25T23:15:04.574Z,9.75
2018-09-25T23:17:37.254Z,15.75
2018-09-25T23:20:10.039Z,11.03
2018-09-25T23:22:42.767Z,10.45
2018-09-25T23:25:15.334Z,10.28
2018-09-25T23:27:48.024Z,10.30
2018-09-25T23:30:20.692Z,10.18
2018-09-25T23:32:53.430Z,11.50
2018-09-25T23:35:26.265Z,10.45
2018-09-25T23:37:59.048Z,10.85
2018-09-25T23:40:28.943Z,9.40
2018-09-25T23:43:01.688Z,9.90
2018-09-25T23:45:34.423Z,9.05
2018-09-25T23:49:08.985Z,8.90
2018-09-25T23:51:41.790Z,9.83
2018-09-25T23:54:21.668Z,12.78
2018-09-25T23:56:55.479Z,8.28
